createdAt,value
2022-08-03T00:00:33.888Z,5.00
2022-08-03T00:03:05.166Z,5.30
2022-08-03T00:05:33.718Z,5.30
2022-08-03T00:08:01.697Z,6.10
2022-08-03T00:10:30.417Z,6.50
2022-08-03T00:12:58.355Z,6.10
2022-08-03T00:15:26.396Z,6.80
2022-08-03T00:17:54.265Z,6.80
2022-08-03T00:20:22.332Z,8.20
2022-08-03T00:22:50.613Z,7.10
2022-08-03T00:25:19.421Z,7.20
2022-08-03T00:27:48.334Z,7.50
2022-08-03T00:30:16.852Z,7.80
2022-08-03T00:32:45.579Z,7.60
2022-08-03T00:35:27.341Z,8.30
2022-08-03T00:38:01.881Z,7.60
2022-08-03T00:40:29.832Z,7.60
2022-08-03T00:43:01.767Z,7.60
2022-08-03T00:45:33.286Z,8.20
2022-08-03T00:48:02.741Z,7.60
2022-08-03T00:50:32.813Z,8.00
2022-08-03T00:53:03.357Z,8.10
2022-08-03T00:55:31.702Z,8.00
2022-08-03T00:58:01.631Z,7.80
2022-08-03T01:00:29.472Z,8.30
2022-08-03T01:02:57.351Z,7.40
2022-08-03T01:05:25.502Z,7.70
2022-08-03T01:08:21.227Z,7.50
2022-08-03T01:11:12.780Z,7.30
2022-08-03T01:14:21.781Z,7.00
2022-08-03T01:17:02.256Z,7.40
2022-08-03T01:20:08.640Z,7.10
2022-08-03T01:23:04.000Z,8.20
2022-08-03T01:26:06.313Z,7.50
2022-08-03T01:28:49.365Z,7.10
2022-08-03T01:31:22.631Z,7.10
2022-08-03T01:33:58.042Z,7.90
2022-08-03T01:36:34.418Z,7.70
2022-08-03T01:39:09.505Z,7.90
2022-08-03T01:41:44.459Z,8.10
2022-08-03T01:44:27.918Z,7.30
2022-08-03T01:47:03.519Z,7.90
2022-08-03T01:49:37.872Z,7.30
2022-08-03T01:52:06.627Z,7.60
2022-08-03T01:54:38.294Z,7.20
2022-08-03T01:57:07.287Z,7.00
2022-08-03T01:59:37.103Z,7.70
2022-08-03T02:02:27.796Z,7.40
2022-08-03T02:04:57.316Z,7.20
2022-08-03T02:07:27.155Z,7.20
2022-08-03T02:09:56.171Z,8.10
2022-08-03T02:12:26.625Z,7.60
2022-08-03T02:14:56.737Z,7.20
2022-08-03T02:17:39.679Z,7.20
2022-08-03T02:20:13.143Z,7.60
2022-08-03T02:22:43.158Z,7.80
2022-08-03T02:25:14.263Z,7.70
2022-08-03T02:27:55.990Z,7.50
2022-08-03T02:30:31.513Z,7.60
2022-08-03T02:33:01.566Z,7.30
2022-08-03T02:35:29.869Z,7.50
2022-08-03T02:38:02.741Z,7.00
2022-08-03T02:40:32.466Z,7.20
2022-08-03T02:43:08.159Z,6.40
2022-08-03T02:45:45.559Z,6.30
2022-08-03T02:48:18.348Z,6.30
2022-08-03T02:53:14.809Z,6.80
2022-08-03T02:55:45.610Z,5.80
2022-08-03T02:58:14.944Z,6.80
2022-08-03T03:00:44.523Z,6.70
2022-08-03T03:03:13.384Z,7.40
2022-08-03T03:05:55.047Z,6.10
2022-08-03T03:08:28.654Z,6.70
2022-08-03T03:11:00.946Z,6.60
2022-08-03T03:13:30.689Z,7.50
2022-08-03T03:16:03.142Z,6.80
2022-08-03T03:18:35.155Z,6.60
2022-08-03T03:21:04.767Z,7.60
2022-08-03T03:23:38.796Z,6.20
2022-08-03T03:26:08.141Z,6.60
2022-08-03T03:28:39.900Z,5.70
2022-08-03T03:31:08.624Z,6.60
2022-08-03T03:33:38.576Z,6.00
2022-08-03T03:36:07.824Z,6.70
2022-08-03T03:38:35.719Z,7.40
2022-08-03T03:41:04.860Z,6.60
2022-08-03T03:43:33.254Z,6.60
2022-08-03T03:46:01.421Z,7.50
2022-08-03T03:48:29.214Z,6.40
2022-08-03T03:51:00.906Z,6.30
2022-08-03T03:53:28.730Z,6.80
2022-08-03T03:55:59.274Z,7.10
2022-08-03T03:58:32.489Z,7.10
2022-08-03T04:01:01.627Z,6.90
2022-08-03T04:03:29.692Z,6.70
2022-08-03T04:06:16.580Z,6.80
2022-08-03T04:09:04.128Z,6.40
2022-08-03T04:11:40.948Z,7.00
2022-08-03T04:14:13.752Z,7.00
2022-08-03T04:16:52.148Z,6.90
2022-08-03T04:19:37.932Z,7.30
2022-08-03T04:22:20.642Z,7.40
2022-08-03T04:25:08.537Z,8.20
2022-08-03T04:27:40.822Z,7.90
2022-08-03T04:30:09.395Z,7.50
2022-08-03T04:32:37.831Z,6.80
2022-08-03T04:35:07.321Z,6.90
2022-08-03T04:37:48.136Z,6.70
2022-08-03T04:40:40.228Z,7.00
2022-08-03T04:43:10.531Z,7.30
2022-08-03T04:45:38.971Z,7.20
2022-08-03T04:48:07.687Z,6.70
2022-08-03T04:50:37.137Z,6.80
2022-08-03T04:53:07.296Z,7.00
2022-08-03T04:55:36.808Z,6.60
2022-08-03T04:58:05.265Z,7.00
2022-08-03T05:00:33.265Z,7.00
2022-08-03T05:03:01.082Z,6.60
2022-08-03T05:05:47.442Z,7.60
2022-08-03T05:08:20.261Z,6.10
2022-08-03T05:10:59.153Z,6.50
2022-08-03T05:13:27.838Z,6.40
2022-08-03T05:15:55.901Z,6.60
2022-08-03T05:18:24.126Z,6.60
2022-08-03T05:20:52.202Z,7.50
2022-08-03T05:23:20.272Z,7.20
2022-08-03T05:25:51.179Z,6.20
2022-08-03T05:28:19.211Z,6.70
2022-08-03T05:30:47.363Z,5.90
2022-08-03T05:33:15.351Z,5.90
2022-08-03T05:36:01.295Z,6.20
2022-08-03T05:38:34.047Z,5.70
2022-08-03T05:41:23.714Z,5.60
2022-08-03T05:44:04.419Z,6.00
2022-08-03T05:46:32.549Z,5.90
2022-08-03T05:49:11.777Z,5.60
2022-08-03T06:04:03.606Z,6.90
2022-08-03T06:06:32.374Z,6.40
2022-08-03T06:09:00.399Z,6.00
2022-08-03T06:11:28.239Z,7.50
2022-08-03T06:13:56.036Z,6.70
2022-08-03T06:16:23.827Z,6.90
2022-08-03T06:18:51.726Z,6.50
2022-08-03T06:21:19.668Z,6.30
2022-08-03T06:23:54.157Z,5.80
2022-08-03T06:26:25.705Z,5.50
2022-08-03T06:28:55.164Z,5.80
2022-08-03T06:31:33.066Z,5.20
2022-08-03T06:34:33.360Z,4.90
2022-08-03T06:37:02.354Z,4.70
2022-08-03T06:39:30.668Z,4.40
2022-08-03T06:41:58.902Z,4.00
2022-08-03T06:44:26.764Z,4.20
2022-08-03T06:46:54.579Z,3.60
2022-08-03T06:49:22.661Z,3.50
2022-08-03T06:52:03.528Z,3.90
2022-08-03T06:54:35.999Z,4.00
2022-08-03T06:57:04.770Z,3.50
2022-08-03T07:00:08.178Z,4.10
2022-08-03T07:02:20.850Z,3.60
2022-08-03T07:04:49.481Z,4.00
2022-08-03T07:07:17.925Z,3.70
2022-08-03T07:09:57.088Z,4.10
2022-08-03T07:12:30.562Z,3.90
2022-08-03T07:15:01.719Z,4.10
2022-08-03T07:17:35.974Z,4.20
2022-08-03T07:20:07.810Z,3.60
2022-08-03T07:22:38.039Z,3.90
2022-08-03T07:25:07.758Z,4.20
2022-08-03T07:27:35.809Z,4.40
2022-08-03T07:30:08.366Z,4.10
2022-08-03T07:32:36.211Z,4.00
2022-08-03T07:35:24.944Z,4.00
2022-08-03T07:37:56.322Z,4.20
2022-08-03T07:40:25.175Z,4.00
2022-08-03T07:42:58.960Z,3.30
2022-08-03T07:45:26.982Z,3.50
2022-08-03T07:47:55.056Z,3.10
2022-08-03T07:50:23.810Z,3.60
2022-08-03T07:52:53.728Z,3.00
2022-08-03T07:55:26.389Z,3.20
2022-08-03T07:58:12.372Z,3.00
2022-08-03T08:00:40.300Z,3.20
2022-08-03T08:03:08.549Z,3.00
2022-08-03T08:05:36.829Z,2.80
2022-08-03T08:08:05.130Z,3.10
2022-08-03T08:10:35.458Z,3.10
2022-08-03T08:13:04.828Z,3.10
2022-08-03T08:15:33.127Z,3.20
2022-08-03T08:18:02.653Z,3.30
2022-08-03T08:20:37.235Z,3.30
2022-08-03T08:23:29.063Z,2.90
2022-08-03T08:25:56.865Z,2.50
2022-08-03T08:28:32.523Z,3.40
2022-08-03T08:31:02.261Z,2.90
2022-08-03T08:34:01.078Z,2.80
2022-08-03T08:36:19.010Z,2.60
2022-08-03T08:38:48.129Z,2.70
2022-08-03T08:41:16.971Z,2.60
2022-08-03T08:43:44.923Z,2.60
2022-08-03T08:46:23.371Z,2.70
2022-08-03T08:48:53.502Z,2.80
2022-08-03T08:51:22.644Z,2.60
2022-08-03T08:53:53.958Z,2.90
2022-08-03T08:56:26.049Z,2.70
2022-08-03T08:58:59.288Z,3.00
2022-08-03T09:01:28.597Z,2.70
2022-08-03T09:03:56.640Z,2.80
2022-08-03T09:06:24.924Z,2.60
2022-08-03T09:08:52.961Z,2.90
2022-08-03T09:12:01.037Z,2.50
2022-08-03T09:14:37.120Z,2.20
2022-08-03T09:17:02.843Z,2.70
2022-08-03T09:19:32.320Z,2.20
2022-08-03T09:22:15.186Z,2.50
2022-08-03T09:27:53.591Z,2.50
2022-08-03T09:30:33.535Z,2.60
2022-08-03T09:33:08.363Z,2.30
2022-08-03T09:35:53.599Z,2.40
2022-08-03T09:38:26.342Z,2.50
2022-08-03T09:40:59.996Z,2.40
2022-08-03T09:43:29.288Z,2.50
2022-08-03T09:46:07.763Z,2.00
2022-08-03T09:48:38.056Z,2.40
2022-08-03T09:51:12.933Z,2.30
2022-08-03T09:53:57.073Z,2.20
2022-08-03T09:56:47.007Z,2.20
2022-08-03T09:59:26.259Z,2.50
2022-08-03T10:01:55.893Z,2.60
2022-08-03T10:04:24.608Z,2.50
2022-08-03T10:07:23.230Z,2.30
2022-08-03T10:10:29.080Z,2.40
2022-08-03T10:12:49.418Z,2.70
2022-08-03T10:16:23.842Z,2.20
2022-08-03T10:18:06.025Z,2.20
2022-08-03T10:20:49.702Z,2.20
2022-08-03T10:23:19.182Z,1.80
2022-08-03T10:25:50.734Z,1.80
2022-08-03T10:30:53.678Z,1.90
2022-08-03T10:33:49.614Z,1.60
2022-08-03T10:36:13.944Z,1.60
2022-08-03T10:38:49.692Z,2.00
2022-08-03T10:41:21.612Z,1.90
2022-08-03T10:44:16.033Z,1.90
2022-08-03T10:46:45.392Z,1.70
2022-08-03T10:49:33.636Z,1.80
2022-08-03T10:52:13.895Z,1.60
2022-08-03T10:55:12.769Z,1.60
2022-08-03T10:57:46.479Z,1.70
2022-08-03T11:00:22.617Z,1.90
2022-08-03T11:03:03.294Z,1.90
2022-08-03T11:05:37.607Z,1.80
2022-08-03T11:08:35.447Z,1.50
2022-08-03T11:11:28.769Z,1.60
2022-08-03T11:14:08.064Z,1.40
2022-08-03T11:16:41.794Z,1.60
2022-08-03T11:19:13.163Z,1.60
2022-08-03T11:22:07.327Z,1.70
2022-08-03T11:24:41.121Z,1.70
2022-08-03T11:27:14.786Z,1.90
2022-08-03T11:30:19.363Z,1.80
2022-08-03T11:32:48.447Z,1.70
2022-08-03T11:35:23.745Z,1.90
2022-08-03T11:38:03.586Z,2.00
2022-08-03T11:40:46.475Z,1.70
2022-08-03T11:43:35.266Z,1.80
2022-08-03T11:46:28.664Z,2.00
2022-08-03T11:49:11.262Z,2.00
2022-08-03T11:51:40.980Z,2.20
2022-08-03T11:54:08.951Z,2.10
2022-08-03T11:56:50.835Z,1.90
2022-08-03T11:59:22.201Z,2.20
2022-08-03T12:01:53.728Z,1.70
2022-08-03T12:04:22.340Z,2.40
2022-08-03T12:07:01.426Z,2.00
2022-08-03T12:09:34.713Z,2.20
2022-08-03T12:12:03.376Z,1.80
2022-08-03T12:14:49.326Z,2.00
2022-08-03T12:17:19.720Z,2.40
2022-08-03T12:19:48.040Z,2.20
2022-08-03T12:22:17.195Z,2.20
2022-08-03T12:24:47.671Z,2.10
2022-08-03T12:27:29.761Z,2.10
2022-08-03T12:29:59.441Z,2.20
2022-08-03T12:32:31.123Z,2.20
2022-08-03T12:35:01.862Z,2.30
2022-08-03T12:37:30.735Z,2.20
2022-08-03T12:40:09.445Z,2.20
2022-08-03T12:42:40.837Z,2.20
2022-08-03T12:45:27.181Z,2.20
2022-08-03T12:48:02.129Z,2.20
2022-08-03T12:50:35.935Z,2.50
2022-08-03T12:53:08.037Z,2.40
2022-08-03T12:55:57.116Z,2.60
2022-08-03T12:58:36.146Z,2.50
2022-08-03T13:01:10.025Z,2.40
2022-08-03T13:03:45.829Z,2.40
2022-08-03T13:06:24.456Z,2.30
2022-08-03T13:09:05.327Z,2.30
2022-08-03T13:11:55.781Z,2.70
2022-08-03T13:14:23.738Z,2.40
2022-08-03T13:16:52.118Z,2.60
2022-08-03T13:19:19.980Z,2.30
2022-08-03T13:22:03.411Z,2.50
2022-08-03T13:24:33.713Z,2.40
2022-08-03T13:27:23.312Z,2.40
2022-08-03T13:29:51.437Z,2.50
2022-08-03T13:32:20.070Z,2.70
2022-08-03T13:34:48.082Z,2.20
2022-08-03T13:37:16.124Z,2.50
2022-08-03T13:39:57.226Z,2.40
2022-08-03T13:42:30.589Z,2.60
2022-08-03T13:45:00.502Z,2.60
2022-08-03T13:47:29.449Z,1.90
2022-08-03T13:50:00.314Z,2.30
2022-08-03T13:52:33.273Z,2.10
2022-08-03T13:55:04.049Z,2.30
2022-08-03T13:58:11.927Z,2.50
2022-08-03T14:00:28.638Z,2.80
2022-08-03T14:03:06.468Z,2.40
2022-08-03T14:05:40.966Z,2.40
2022-08-03T14:08:11.006Z,2.40
2022-08-03T14:10:43.467Z,2.30
2022-08-03T14:13:16.721Z,2.30
2022-08-03T14:15:49.898Z,2.20
2022-08-03T14:18:27.710Z,2.70
2022-08-03T14:21:07.165Z,2.20
2022-08-03T14:23:38.097Z,2.60
2022-08-03T14:26:07.447Z,2.80
2022-08-03T14:28:35.887Z,2.70
2022-08-03T14:31:03.852Z,2.70
2022-08-03T14:33:36.488Z,2.50
2022-08-03T14:36:05.301Z,2.90
2022-08-03T14:38:33.253Z,2.40
2022-08-03T14:41:01.107Z,2.70
2022-08-03T14:43:34.103Z,2.80
2022-08-03T14:46:02.338Z,2.50
2022-08-03T14:50:30.372Z,2.50
2022-08-03T14:51:18.795Z,2.50
2022-08-03T14:53:46.904Z,2.50
2022-08-03T14:56:14.718Z,2.80
2022-08-03T14:58:42.651Z,2.40
2022-08-03T15:02:05.354Z,2.50
2022-08-03T15:03:58.817Z,3.00
2022-08-03T15:06:26.692Z,2.80
2022-08-03T15:11:42.834Z,2.80
2022-08-03T15:14:13.588Z,2.40
2022-08-03T15:16:42.976Z,2.20
2022-08-03T15:20:01.366Z,3.30
2022-08-03T15:21:58.729Z,2.70
2022-08-03T15:24:29.317Z,2.70
2022-08-03T15:26:59.745Z,2.30
2022-08-03T15:30:07.910Z,2.90
2022-08-03T15:32:15.907Z,2.30
2022-08-03T15:34:50.476Z,2.90
2022-08-03T15:37:20.876Z,2.50
2022-08-03T15:39:58.868Z,2.50
2022-08-03T15:42:33.374Z,2.30
2022-08-03T15:45:04.580Z,2.70
2022-08-03T15:47:40.335Z,2.70
2022-08-03T15:50:09.894Z,2.70
2022-08-03T15:52:41.714Z,2.90
2022-08-03T15:55:15.907Z,2.90
2022-08-03T15:59:03.759Z,3.10
2022-08-03T16:00:33.318Z,2.50
2022-08-03T16:03:02.370Z,2.50
2022-08-03T16:05:30.161Z,3.00
2022-08-03T16:08:04.051Z,3.00
2022-08-03T16:10:32.988Z,2.60
2022-08-03T16:13:00.833Z,2.90
2022-08-03T16:15:29.234Z,2.80
2022-08-03T16:17:56.976Z,2.70
2022-08-03T16:20:31.073Z,2.60
2022-08-03T16:23:09.188Z,2.80
2022-08-03T16:25:49.068Z,3.10
2022-08-03T16:28:17.933Z,2.60
2022-08-03T16:30:47.032Z,2.30
2022-08-03T16:33:17.809Z,2.70
2022-08-03T16:35:49.665Z,2.70
2022-08-03T16:38:19.422Z,2.50
2022-08-03T16:40:53.725Z,2.10
2022-08-03T16:43:22.749Z,2.20
2022-08-03T16:45:51.080Z,2.40
2022-08-03T16:48:19.505Z,2.70
2022-08-03T16:50:48.117Z,2.50
2022-08-03T16:53:17.197Z,2.50
2022-08-03T16:56:01.151Z,2.10
2022-08-03T16:58:41.494Z,2.70
2022-08-03T17:01:21.542Z,2.70
2022-08-03T17:04:03.230Z,2.40
2022-08-03T17:06:36.389Z,2.40
2022-08-03T17:09:14.636Z,2.80
2022-08-03T17:11:48.360Z,2.20
2022-08-03T17:14:21.788Z,2.40
2022-08-03T17:16:53.783Z,2.50
2022-08-03T17:19:24.526Z,2.30
2022-08-03T17:22:18.394Z,2.40
2022-08-03T17:24:51.167Z,2.50
2022-08-03T17:28:49.348Z,2.40
2022-08-03T17:30:15.963Z,2.60
2022-08-03T17:32:56.939Z,2.70
2022-08-03T17:35:35.534Z,2.20
2022-08-03T17:38:07.916Z,2.50
2022-08-03T17:40:50.056Z,2.80
2022-08-03T17:44:13.352Z,2.80
2022-08-03T17:46:11.097Z,2.40
2022-08-03T17:48:42.070Z,2.30
2022-08-03T17:51:31.560Z,2.50
2022-08-03T17:54:24.506Z,2.60
2022-08-03T17:57:26.401Z,3.30
2022-08-03T18:00:28.927Z,3.00
2022-08-03T18:03:15.849Z,3.10
2022-08-03T18:06:11.660Z,2.90
2022-08-03T18:08:46.924Z,3.50
2022-08-03T18:11:21.951Z,5.40
2022-08-03T18:14:16.514Z,3.80
2022-08-03T18:16:53.414Z,4.30
2022-08-03T18:19:21.683Z,5.40
2022-08-03T18:22:10.092Z,5.00
2022-08-03T18:24:39.979Z,4.50
2022-08-03T18:27:11.009Z,4.80
2022-08-03T18:29:40.191Z,3.90
2022-08-03T18:32:13.577Z,4.10
2022-08-03T18:34:53.595Z,4.20
2022-08-03T18:37:26.155Z,3.70
2022-08-03T18:42:26.878Z,4.40
2022-08-03T18:44:56.380Z,5.50
2022-08-03T18:47:53.980Z,4.60
2022-08-03T18:50:48.203Z,4.40
2022-08-03T18:54:03.942Z,4.40
2022-08-03T18:56:55.942Z,4.40
2022-08-03T18:59:49.572Z,4.20
2022-08-03T19:03:20.380Z,3.70
2022-08-03T19:06:14.440Z,3.90
2022-08-03T19:09:24.585Z,4.50
2022-08-03T19:12:14.475Z,3.30
2022-08-03T19:15:13.473Z,4.00
2022-08-03T19:17:50.170Z,4.50
2022-08-03T19:20:28.160Z,5.90
2022-08-03T19:22:59.600Z,4.90
2022-08-03T19:25:34.475Z,5.00
2022-08-03T19:28:09.604Z,4.70
2022-08-03T19:30:40.331Z,4.80
2022-08-03T19:33:15.546Z,5.20
2022-08-03T19:35:55.795Z,6.40
2022-08-03T19:38:29.186Z,8.30
2022-08-03T19:41:04.683Z,5.60
2022-08-03T19:43:52.580Z,8.90
2022-08-03T19:46:32.098Z,9.00
2022-08-03T19:49:16.248Z,11.70
2022-08-03T19:52:02.451Z,10.40
2022-08-03T19:54:54.603Z,11.60
2022-08-03T19:57:27.721Z,12.10
2022-08-03T20:00:03.357Z,11.90
2022-08-03T20:02:37.409Z,10.10
2022-08-03T20:05:14.754Z,9.90
2022-08-03T20:07:47.725Z,8.00
2022-08-03T20:10:20.590Z,8.00
2022-08-03T20:12:52.983Z,8.40
2022-08-03T20:15:22.465Z,7.70
2022-08-03T20:18:06.303Z,8.30
2022-08-03T20:20:53.727Z,6.70
2022-08-03T20:23:22.857Z,5.80
2022-08-03T20:26:09.689Z,6.40
2022-08-03T20:29:22.122Z,5.80
2022-08-03T20:32:46.145Z,6.00
2022-08-03T20:35:35.549Z,6.10
2022-08-03T20:38:06.984Z,6.10
2022-08-03T20:40:41.718Z,6.80
2022-08-03T20:43:15.788Z,5.70
2022-08-03T20:45:58.976Z,6.50
2022-08-03T20:48:37.504Z,5.90
2022-08-03T20:51:50.604Z,6.40
2022-08-03T20:57:07.021Z,6.40
2022-08-03T20:59:50.757Z,6.20
2022-08-03T21:02:29.055Z,6.70
2022-08-03T21:05:10.534Z,6.80
2022-08-03T21:08:05.584Z,6.40
2022-08-03T21:10:39.518Z,6.90
2022-08-03T21:13:07.723Z,7.00
2022-08-03T21:13:35.557Z,6.30
2022-08-03T21:16:13.998Z,6.90
2022-08-03T21:18:53.114Z,6.50
2022-08-03T21:21:23.903Z,6.90
2022-08-03T21:23:54.894Z,7.00
2022-08-03T21:26:25.668Z,6.50
2022-08-03T21:28:56.190Z,7.20
2022-08-03T21:31:26.690Z,6.40
2022-08-03T21:33:58.096Z,6.50
2022-08-03T21:36:28.806Z,6.60
2022-08-03T21:39:00.999Z,7.00
2022-08-03T21:41:32.288Z,7.00
2022-08-03T21:44:01.792Z,6.90
2022-08-03T21:46:35.527Z,6.60
2022-08-03T21:50:04.559Z,6.40
2022-08-03T21:51:59.785Z,6.30
2022-08-03T21:54:35.298Z,7.20
2022-08-03T21:57:22.745Z,6.70
2022-08-03T21:59:57.133Z,6.80
2022-08-03T22:02:32.054Z,6.60
2022-08-03T22:05:00.736Z,6.80
2022-08-03T22:07:34.355Z,7.30
2022-08-03T22:10:05.557Z,6.30
2022-08-03T22:12:33.976Z,6.80
2022-08-03T22:15:06.062Z,6.90
2022-08-03T22:17:55.758Z,6.50
2022-08-03T22:20:25.747Z,7.10
2022-08-03T22:22:57.056Z,7.10
2022-08-03T22:25:32.801Z,6.60
2022-08-03T22:28:05.458Z,6.60
2022-08-03T22:30:34.569Z,6.90
2022-08-03T22:33:05.673Z,7.00
2022-08-03T22:35:44.820Z,7.10
2022-08-03T22:38:17.262Z,8.50
2022-08-03T22:40:48.372Z,6.90
2022-08-03T22:43:16.882Z,7.40
2022-08-03T22:46:10.029Z,7.00
2022-08-03T22:48:41.053Z,7.60
2022-08-03T22:51:10.606Z,7.10
2022-08-03T22:53:39.688Z,7.10
2022-08-03T22:56:08.548Z,7.10
2022-08-03T22:58:36.465Z,7.00
2022-08-03T23:01:12.043Z,6.90
2022-08-03T23:04:03.391Z,7.00
2022-08-03T23:06:38.702Z,6.90
2022-08-03T23:09:12.550Z,7.00
2022-08-03T23:11:45.393Z,7.40
2022-08-03T23:14:17.263Z,7.30
2022-08-03T23:16:47.253Z,7.00
2022-08-03T23:19:17.403Z,7.10
2022-08-03T23:22:02.444Z,7.30
2022-08-03T23:24:36.354Z,7.90
2022-08-03T23:27:06.947Z,7.50
2022-08-03T23:29:37.222Z,8.00
2022-08-03T23:32:06.953Z,7.60
2022-08-03T23:34:58.116Z,7.70
2022-08-03T23:37:26.631Z,7.60
2022-08-03T23:39:55.113Z,8.20
2022-08-03T23:42:23.477Z,8.10
2022-08-03T23:44:55.754Z,7.20
2022-08-03T23:47:24.063Z,7.80
2022-08-03T23:50:12.639Z,8.30
2022-08-03T23:53:00.487Z,8.20
2022-08-03T23:55:56.295Z,8.80
2022-08-03T23:58:43.043Z,11.50
